Accueil
METAR-TAF:

METAR-TAF

Aéroports :

Aéroport de Gabès-Matmata

Gabès, Tunisie

latitude: 33-53N, longitude: 010-06E, altitude: 4 m

Observation

Le bulletin a été fait il y a 54 minutes, à 14:00 UTC
Vent 15 kt de est
Température 34°C
Humidité 41%
Pression 1013 hPa
Visibilité: 8000 m

METAR: DTTG 221400Z 09015KT 8000 NSC 34/19 Q1013

Heure: 15:54 (14:54 UTC)

Prévision

Le bulletin a été fait il y a 2 heures et 54 minutes, à 12:00 UTC
Prévision valable du 22 à 13 UTC au 22 à 22 UTC
Vent 17 kt de est
Visibilité 10 km ou plus
pas de nuages en-dessous de 1500 mètres et pas de cumulonimbus.
Temporairement
du 22 à 16 UTC au 22 à 22 UTC
Vent 20 kt de est avec des rafales jusqu'à 30 kt
Visibilité: 3000 m
sable,

TAF: DTTG 221200Z 2213/2222 09017KT CAVOK TEMPO 2216/2222 09020G30KT 3000 SA

Observations et prévisions météorologiques de plus de 4000 aéroports (messages METAR et TAF).

Les stations disponibles sont représentées par des disques jaunes et rouges sur la carte.

Passer la souris dessus pour voir le nom de la station.

Cliquer dessus pour voir les observations et prévisions météorologiques.

Pour changer de carte: cliquez sur les boutons verts avec une croix noire pour zoomer, sur le bouton vert avec un tiret pour effectuer un zoom arrière, ou sur les flèches vertes pour les cartes adjacentes.


METAR-TAF: